Time;durP1;ratioP1;P1;durP2;ratioP2;P2;SDS_P1;SDS_P2;PMS_P1;PMS_P2;Temp;Humidity;BMP_temperature;BMP_pressure;BME280_temperature;BME280_humidity;BME280_pressure;Samples;Min_cycle;Max_cycle;Signal;HPM_P1;HPM_P2
2022/11/08 00:02:00;;;;;;;5.07;1.80;;;;;;;-145.48;100.00;64539.38;6051479;29;20148;-94
2022/11/08 00:15:05;;;;;;;4.57;1.60;;;;;;;-145.48;100.00;64539.38;6044711;29;20019;-94
2022/11/08 00:18:07;;;;;;;3.00;1.40;;;;;;;-145.48;100.00;64539.38;6050141;29;20041;-94
2022/11/08 00:21:09;;;;;;;6.43;1.77;;;;;;;-145.48;100.00;64539.38;6026578;29;20045;-94
2022/11/08 00:24:11;;;;;;;4.43;1.40;;;;;;;-145.48;100.00;64539.38;6048916;29;20041;-94
2022/11/08 00:27:16;;;;;;;5.75;1.55;;;;;;;-145.48;100.00;64539.38;6042452;29;20431;-94
2022/11/08 00:30:19;;;;;;;6.28;1.42;;;;;;;-145.48;100.00;64539.38;6035458;29;20049;-94
2022/11/08 00:33:21;;;;;;;6.22;1.73;;;;;;;-145.48;100.00;64539.38;6045325;29;20091;-94
2022/11/08 00:36:22;;;;;;;5.53;1.65;;;;;;;-145.48;100.00;64539.38;6055950;29;20558;-94
2022/11/08 00:39:25;;;;;;;3.67;1.50;;;;;;;-145.48;100.00;64539.38;6044303;29;20073;-94
2022/11/08 00:42:26;;;;;;;3.25;1.55;;;;;;;-145.48;100.00;64539.38;6025972;29;20049;-94
2022/11/08 00:45:28;;;;;;;3.42;1.88;;;;;;;-145.48;100.00;64539.38;6037005;29;20048;-94
2022/11/08 00:48:30;;;;;;;2.78;1.55;;;;;;;-145.48;100.00;64539.38;6046500;29;20037;-94
2022/11/08 00:51:32;;;;;;;5.13;1.48;;;;;;;-145.48;100.00;64539.38;6041886;29;20052;-94
2022/11/08 00:54:34;;;;;;;6.82;1.70;;;;;;;-145.48;100.00;64539.38;6040407;29;20048;-95
2022/11/08 00:57:36;;;;;;;4.88;1.63;;;;;;;-145.48;100.00;64539.38;6044937;29;20044;-94
2022/11/08 01:00:58;;;;;;;4.45;1.75;;;;;;;-145.48;100.00;64539.38;6049471;29;20104;-94
2022/11/08 01:04:01;;;;;;;2.90;1.80;;;;;;;-145.48;100.00;64539.38;6054554;29;20572;-94
2022/11/08 01:07:02;;;;;;;2.92;1.67;;;;;;;-145.48;100.00;64539.38;6043390;29;20056;-94
2022/11/08 01:10:05;;;;;;;4.07;1.48;;;;;;;-145.48;100.00;64539.38;6033531;29;20332;-93
2022/11/08 01:13:08;;;;;;;4.07;1.70;;;;;;;-145.48;100.00;64539.38;6046680;29;20301;-94
2022/11/08 01:16:14;;;;;;;3.72;1.70;;;;;;;-145.48;100.00;64539.38;6054730;29;20056;-94
2022/11/08 01:19:15;;;;;;;8.73;1.70;;;;;;;-145.48;100.00;64539.38;6039730;29;20140;-93
2022/11/08 01:22:17;;;;;;;4.43;1.63;;;;;;;-145.48;100.00;64539.38;6042648;29;20539;-94
2022/11/08 01:25:19;;;;;;;1.38;1.00;;;;;;;-145.48;100.00;64539.38;6039383;29;20427;-93
2022/11/08 01:28:21;;;;;;;5.40;1.70;;;;;;;-145.48;100.00;64539.38;6029833;29;20041;-94
2022/11/08 01:31:27;;;;;;;3.38;1.70;;;;;;;-145.48;100.00;64539.38;6041784;29;20041;-93
2022/11/08 01:34:29;;;;;;;6.32;1.95;;;;;;;-145.48;100.00;64539.38;6036276;29;20419;-94
2022/11/08 01:37:31;;;;;;;3.70;1.77;;;;;;;-145.48;100.00;64539.38;6043108;29;20041;-94
2022/11/08 01:40:33;;;;;;;2.35;1.70;;;;;;;-145.48;100.00;64539.38;6039202;29;20048;-94
2022/11/08 01:43:39;;;;;;;5.85;2.15;;;;;;;-145.48;100.00;64539.38;6050951;29;20579;-94
2022/11/08 01:46:47;;;;;;;2.20;1.75;;;;;;;-145.48;100.00;64539.38;6041463;29;20124;-94
2022/11/08 01:49:51;;;;;;;4.20;1.85;;;;;;;-145.48;100.00;64539.38;6038602;29;20082;-95
2022/11/08 01:52:54;;;;;;;4.03;2.00;;;;;;;-145.48;100.00;64539.38;6037683;29;20041;-94
2022/11/08 01:55:57;;;;;;;5.32;2.10;;;;;;;-145.48;100.00;64539.38;6025412;29;20113;-94
2022/11/08 01:59:01;;;;;;;7.38;2.10;;;;;;;-145.48;100.00;64539.38;6033909;29;20358;-94
2022/11/08 02:02:03;;;;;;;7.32;2.00;;;;;;;-145.48;100.00;64539.38;6037409;29;20049;-94
2022/11/08 02:05:23;;;;;;;3.75;2.00;;;;;;;-145.48;100.00;64539.38;6035783;29;20083;-93
2022/11/08 02:08:25;;;;;;;5.93;2.00;;;;;;;-145.48;100.00;64539.38;6042522;29;20450;-94
2022/11/08 02:11:28;;;;;;;6.00;2.00;;;;;;;-145.48;100.00;64539.38;6035046;29;20045;-94
2022/11/08 02:14:30;;;;;;;4.13;2.35;;;;;;;-145.48;100.00;64539.38;6035980;29;20055;-94
2022/11/08 02:17:32;;;;;;;5.68;2.20;;;;;;;-145.48;100.00;64539.38;6045892;29;20048;-94
2022/11/08 02:20:34;;;;;;;5.70;2.25;;;;;;;-145.48;100.00;64539.38;6044936;29;20721;-94
2022/11/08 02:23:39;;;;;;;7.30;2.22;;;;;;;-145.48;100.00;64539.38;6031521;29;20132;-94
2022/11/08 02:26:43;;;;;;;6.55;2.10;;;;;;;-145.48;100.00;64539.38;6034302;29;20053;-94
2022/11/08 02:29:45;;;;;;;4.32;2.25;;;;;;;-145.48;100.00;64539.38;6030011;29;20407;-94
2022/11/08 02:32:47;;;;;;;5.10;2.00;;;;;;;-145.48;100.00;64539.38;6036957;29;20095;-94
2022/11/08 02:35:52;;;;;;;6.53;2.17;;;;;;;-145.48;100.00;64539.38;6047730;29;20050;-94
2022/11/08 02:38:58;;;;;;;5.32;2.25;;;;;;;-145.48;100.00;64539.38;6035853;29;20546;-94
2022/11/08 02:42:01;;;;;;;6.40;2.33;;;;;;;-145.48;100.00;64539.38;6029490;29;20030;-94
2022/11/08 02:45:09;;;;;;;5.97;2.60;;;;;;;-145.48;100.00;64539.38;6026789;29;20084;-94
2022/11/08 02:48:12;;;;;;;5.03;1.95;;;;;;;-145.48;100.00;64539.38;6029495;29;20061;-94
2022/11/08 02:51:14;;;;;;;4.88;2.03;;;;;;;-145.48;100.00;64539.38;6029655;29;20049;-94
2022/11/08 02:54:15;;;;;;;6.00;1.92;;;;;;;-145.48;100.00;64539.38;6038036;29;20097;-94
2022/11/08 02:57:17;;;;;;;3.13;1.83;;;;;;;-145.48;100.00;64539.38;6028215;29;20946;-94
2022/11/08 03:00:19;;;;;;;5.18;2.00;;;;;;;-145.48;100.00;64539.38;6033996;29;20099;-94
2022/11/08 03:03:21;;;;;;;4.13;2.20;;;;;;;-145.48;100.00;64539.38;6026107;29;20089;-94
2022/11/08 03:06:23;;;;;;;6.05;2.22;;;;;;;-145.48;100.00;64539.38;6055842;29;20114;-94
2022/11/08 03:09:26;;;;;;;4.80;1.83;;;;;;;-145.48;100.00;64539.38;6032666;29;20044;-94
2022/11/08 03:12:28;;;;;;;9.43;2.65;;;;;;;-145.48;100.00;64539.38;6038169;29;20116;-94
2022/11/08 03:15:30;;;;;;;5.07;2.38;;;;;;;-145.48;100.00;64539.38;6037668;29;20128;-94
2022/11/08 03:18:32;;;;;;;8.13;2.47;;;;;;;-145.48;100.00;64539.38;6044251;29;20056;-93
2022/11/08 03:21:35;;;;;;;3.80;2.00;;;;;;;-145.48;100.00;64539.38;6054593;29;20051;-94
2022/11/08 03:24:37;;;;;;;4.03;2.00;;;;;;;-145.48;100.00;64539.38;6059913;29;20049;-94
2022/11/08 03:27:39;;;;;;;5.45;2.47;;;;;;;-145.48;100.00;64539.38;6046954;29;20073;-94
2022/11/08 03:30:41;;;;;;;4.72;2.30;;;;;;;-145.48;100.00;64539.38;6062764;29;20055;-94
2022/11/08 03:33:43;;;;;;;4.65;2.30;;;;;;;-145.48;100.00;64539.38;6049483;29;20029;-94
2022/11/08 03:36:45;;;;;;;6.30;2.03;;;;;;;-145.48;100.00;64539.38;6044460;29;20048;-94
2022/11/08 03:39:47;;;;;;;5.72;2.10;;;;;;;-145.48;100.00;64539.38;6052224;29;20467;-94
2022/11/08 03:42:49;;;;;;;3.70;2.15;;;;;;;-145.48;100.00;64539.38;6050062;29;20045;-93
2022/11/08 03:45:51;;;;;;;3.28;1.98;;;;;;;-145.48;100.00;64539.38;6057505;29;20411;-94
2022/11/08 03:48:52;;;;;;;3.92;2.50;;;;;;;-145.48;100.00;64539.38;6053658;29;20076;-93
2022/11/08 03:51:54;;;;;;;3.47;2.30;;;;;;;-145.48;100.00;64539.38;6050741;29;20443;-94
2022/11/08 03:54:56;;;;;;;4.97;2.05;;;;;;;-145.48;100.00;64539.38;6040708;29;20049;-94
2022/11/08 03:57:58;;;;;;;5.13;2.33;;;;;;;-145.48;100.00;64539.38;6048359;29;20487;-94
2022/11/08 04:01:06;;;;;;;3.72;2.33;;;;;;;-145.48;100.00;64539.38;6041526;29;20056;-94
2022/11/08 04:04:08;;;;;;;3.80;1.92;;;;;;;-145.48;100.00;64539.38;6043612;29;20112;-94
2022/11/08 04:07:10;;;;;;;4.72;1.92;;;;;;;-145.48;100.00;64539.38;6047372;29;20588;-93
2022/11/08 04:10:12;;;;;;;4.32;2.00;;;;;;;-145.48;100.00;64539.38;6063750;29;20201;-94
2022/11/08 04:16:35;;;;;;;5.13;2.10;;;;;;;-145.48;100.00;64539.38;6045818;29;20049;-93
2022/11/08 04:22:57;;;;;;;5.40;2.13;;;;;;;-145.48;100.00;64539.38;6054463;29;20072;-94
2022/11/08 04:26:03;;;;;;;6.57;2.10;;;;;;;-145.48;100.00;64539.38;6057349;29;20132;-93
2022/11/08 04:29:08;;;;;;;4.88;2.08;;;;;;;-145.48;100.00;64539.38;6055559;29;20423;-94
2022/11/08 04:32:10;;;;;;;9.15;2.10;;;;;;;-145.48;100.00;64539.38;6057757;29;20045;-94
2022/11/08 04:35:12;;;;;;;5.15;2.10;;;;;;;-145.48;100.00;64539.38;6035823;29;20599;-93
2022/11/08 04:38:15;;;;;;;5.93;2.10;;;;;;;-145.48;100.00;64539.38;6051869;29;20158;-93
2022/11/08 04:41:19;;;;;;;2.67;1.73;;;;;;;-145.48;100.00;64539.38;6048568;29;20691;-94
2022/11/08 04:44:21;;;;;;;6.40;2.67;;;;;;;-145.48;100.00;64539.38;6050084;29;20041;-94
2022/11/08 04:47:23;;;;;;;6.68;2.08;;;;;;;-145.48;100.00;64539.38;6042915;29;20072;-94
2022/11/08 04:50:25;;;;;;;5.95;2.03;;;;;;;-145.48;100.00;64539.38;6042785;29;20052;-94
2022/11/08 04:53:27;;;;;;;6.40;1.98;;;;;;;-145.48;100.00;64539.38;6053577;29;20280;-94
2022/11/08 04:56:29;;;;;;;3.88;2.25;;;;;;;-145.48;100.00;64539.38;6048413;29;20053;-94
2022/11/08 04:59:31;;;;;;;4.35;2.15;;;;;;;-145.48;100.00;64539.38;6051135;29;20154;-94
2022/11/08 05:02:33;;;;;;;5.78;1.85;;;;;;;-145.48;100.00;64539.38;6054058;29;20048;-94
2022/11/08 05:05:35;;;;;;;2.67;1.95;;;;;;;-145.48;100.00;64539.38;6041101;29;20093;-94
2022/11/08 05:08:37;;;;;;;5.00;1.92;;;;;;;-145.48;100.00;64539.38;6049660;29;20041;-94
2022/11/08 05:11:39;;;;;;;3.40;1.80;;;;;;;-145.48;100.00;64539.38;6057580;29;20048;-94
2022/11/08 05:14:41;;;;;;;7.05;1.98;;;;;;;-145.48;100.00;64539.38;6061604;29;20060;-94
2022/11/08 05:17:43;;;;;;;5.25;1.98;;;;;;;-145.48;100.00;64539.38;6067300;29;20044;-94
2022/11/08 05:24:08;;;;;;;3.58;1.80;;;;;;;-145.48;100.00;64539.38;6034482;29;20080;-94
2022/11/08 05:27:10;;;;;;;6.25;2.65;;;;;;;-145.48;100.00;64539.38;6053071;29;20048;-94
2022/11/08 05:30:12;;;;;;;6.53;1.95;;;;;;;-145.48;100.00;64539.38;6055294;29;20037;-94
2022/11/08 05:33:17;;;;;;;4.32;2.03;;;;;;;-145.48;100.00;64539.38;6047637;29;20131;-94
2022/11/08 05:36:20;;;;;;;2.42;1.90;;;;;;;-145.48;100.00;64539.38;6042447;29;20049;-94
2022/11/08 05:39:22;;;;;;;5.80;2.00;;;;;;;-145.48;100.00;64539.38;6050163;29;20065;-93
2022/11/08 05:42:24;;;;;;;6.03;2.00;;;;;;;-145.48;100.00;64539.38;6052042;29;20037;-94
2022/11/08 05:45:26;;;;;;;3.15;1.73;;;;;;;-145.48;100.00;64539.38;6047896;29;20036;-94
2022/11/08 05:48:28;;;;;;;5.70;1.65;;;;;;;-145.48;100.00;64539.38;6040797;29;20097;-94
2022/11/08 05:51:31;;;;;;;3.95;2.00;;;;;;;-145.48;100.00;64539.38;6046771;29;20362;-94
2022/11/08 05:54:33;;;;;;;6.18;2.08;;;;;;;-145.48;100.00;64539.38;6067905;29;20052;-94
2022/11/08 05:57:35;;;;;;;5.18;2.03;;;;;;;-145.48;100.00;64539.38;6052174;29;20131;-94
2022/11/08 06:00:38;;;;;;;2.75;1.90;;;;;;;-145.48;100.00;64539.38;6056834;29;20041;-94
2022/11/08 06:03:40;;;;;;;5.90;2.38;;;;;;;-145.48;100.00;64539.38;6050077;29;20067;-94
2022/11/08 06:06:42;;;;;;;6.55;2.13;;;;;;;-145.48;100.00;64539.38;6054815;29;20456;-93
2022/11/08 06:09:44;;;;;;;4.70;2.53;;;;;;;-145.48;100.00;64539.38;6054903;29;20033;-94
2022/11/08 06:12:46;;;;;;;5.50;2.72;;;;;;;-145.48;100.00;64539.38;6054231;29;20132;-94
2022/11/08 06:15:48;;;;;;;6.68;1.98;;;;;;;-145.48;100.00;64539.38;6056755;29;20044;-94
2022/11/08 06:18:50;;;;;;;6.25;2.28;;;;;;;-145.48;100.00;64539.38;6056664;29;20073;-94
2022/11/08 06:21:52;;;;;;;6.53;2.70;;;;;;;-145.48;100.00;64539.38;6041449;29;20057;-94
2022/11/08 06:24:54;;;;;;;7.28;2.90;;;;;;;-145.48;100.00;64539.38;6037509;29;20041;-94
2022/11/08 06:27:59;;;;;;;4.65;2.60;;;;;;;-145.48;100.00;64539.38;6027487;29;20084;-94
2022/11/08 06:31:02;;;;;;;5.82;2.72;;;;;;;-145.48;100.00;64539.38;6048550;29;20143;-93
2022/11/08 06:34:04;;;;;;;4.85;2.00;;;;;;;-145.48;100.00;64539.38;6032629;29;20882;-94
2022/11/08 06:37:06;;;;;;;4.20;2.20;;;;;;;-145.48;100.00;64539.38;6040834;29;20113;-94
2022/11/08 06:40:10;;;;;;;4.38;2.20;;;;;;;-145.48;100.00;64539.38;6054359;29;20048;-94
2022/11/08 06:43:12;;;;;;;6.68;2.33;;;;;;;-145.48;100.00;64539.38;6061466;29;20056;-94
2022/11/08 06:46:20;;;;;;;5.25;2.67;;;;;;;-145.48;100.00;64539.38;6046917;29;20385;-93
2022/11/08 06:49:23;;;;;;;7.47;2.88;;;;;;;-145.48;100.00;64539.38;6047045;29;20049;-94
2022/11/08 06:52:25;;;;;;;13.45;2.35;;;;;;;-145.48;100.00;64539.38;6037380;29;20111;-94
2022/11/08 06:55:27;;;;;;;5.20;2.40;;;;;;;-145.48;100.00;64539.38;6041630;29;20401;-94
2022/11/08 06:58:30;;;;;;;8.30;2.50;;;;;;;-145.48;100.00;64539.38;6043214;29;20044;-94
2022/11/08 07:01:33;;;;;;;6.45;2.35;;;;;;;-145.48;100.00;64539.38;6046442;29;20049;-94
2022/11/08 07:04:36;;;;;;;4.63;2.28;;;;;;;-145.48;100.00;64539.38;6045019;29;20430;-94
2022/11/08 07:07:39;;;;;;;6.72;2.67;;;;;;;-145.48;100.00;64539.38;6046390;29;20045;-94
2022/11/08 07:10:41;;;;;;;6.47;2.75;;;;;;;-145.48;100.00;64539.38;6041912;29;20365;-93
2022/11/08 07:13:46;;;;;;;4.32;2.42;;;;;;;-145.48;100.00;64539.38;6048391;29;20052;-94
2022/11/08 07:16:48;;;;;;;7.13;2.47;;;;;;;-145.48;100.00;64539.38;6030095;29;20527;-94
2022/11/08 07:19:50;;;;;;;6.38;2.53;;;;;;;-145.48;100.00;64539.38;6034196;29;20497;-94
2022/11/08 07:22:58;;;;;;;4.22;2.38;;;;;;;-145.48;100.00;64539.38;6034574;29;20046;-93
2022/11/08 07:26:02;;;;;;;5.60;2.40;;;;;;;-145.48;100.00;64539.38;6042453;29;20495;-94
2022/11/08 07:29:04;;;;;;;7.32;2.95;;;;;;;-145.48;100.00;64539.38;6047784;29;20511;-93
2022/11/08 07:32:06;;;;;;;6.47;2.83;;;;;;;-145.48;100.00;64539.38;6043424;29;20483;-94
2022/11/08 07:35:09;;;;;;;8.00;2.42;;;;;;;-145.48;100.00;64539.38;6042140;29;20248;-94
2022/11/08 07:38:11;;;;;;;6.15;2.28;;;;;;;-145.48;100.00;64539.38;6056394;29;20052;-94
2022/11/08 07:41:12;;;;;;;4.95;2.38;;;;;;;-145.48;100.00;64539.38;6048762;29;20053;-94
2022/11/08 07:44:15;;;;;;;3.00;2.20;;;;;;;-145.48;100.00;64539.38;6035780;29;20411;-94
2022/11/08 07:47:16;;;;;;;4.75;2.40;;;;;;;-145.48;100.00;64539.38;6046579;29;20070;-94
2022/11/08 07:50:19;;;;;;;5.40;2.28;;;;;;;-145.48;100.00;64539.38;6043199;29;20083;-95
2022/11/08 07:53:22;;;;;;;4.53;2.08;;;;;;;-145.48;100.00;64539.38;6052645;29;20042;-94
2022/11/08 07:56:23;;;;;;;7.32;2.53;;;;;;;-145.48;100.00;64539.38;6037777;29;20495;-94
2022/11/08 07:59:25;;;;;;;4.03;2.50;;;;;;;-145.48;100.00;64539.38;6046221;29;20494;-94
2022/11/08 08:02:27;;;;;;;5.80;2.70;;;;;;;-145.48;100.00;64539.38;6033777;29;20122;-94
2022/11/08 08:05:33;;;;;;;4.93;2.10;;;;;;;-145.48;100.00;64539.38;6057795;29;20475;-94
2022/11/08 08:08:35;;;;;;;7.10;2.40;;;;;;;-145.48;100.00;64539.38;6061523;29;20491;-94
2022/11/08 08:11:37;;;;;;;5.15;2.30;;;;;;;-145.48;100.00;64539.38;6045072;29;20049;-94
2022/11/08 08:14:39;;;;;;;8.93;2.72;;;;;;;-145.48;100.00;64539.38;6047970;29;20052;-94
2022/11/08 08:17:41;;;;;;;4.22;2.70;;;;;;;-145.48;100.00;64539.38;6045270;29;20049;-95
2022/11/08 08:20:45;;;;;;;2.72;2.42;;;;;;;-145.48;100.00;64539.38;6051911;29;20056;-96
2022/11/08 08:23:47;;;;;;;3.85;2.60;;;;;;;-145.48;100.00;64539.38;6032684;29;20104;-96
2022/11/08 08:26:49;;;;;;;4.82;2.30;;;;;;;-145.48;100.00;64539.38;6045789;29;20054;-96
2022/11/08 08:29:52;;;;;;;4.40;2.30;;;;;;;-145.48;100.00;64539.38;6046052;29;20298;-96
2022/11/08 08:33:01;;;;;;;5.40;2.30;;;;;;;-145.48;100.00;64539.38;6042358;29;20195;-96
2022/11/08 08:36:23;;;;;;;4.28;2.10;;;;;;;-145.48;100.00;64539.38;6046538;29;20041;-96
2022/11/08 08:39:25;;;;;;;4.95;2.10;;;;;;;-145.48;100.00;64539.38;6054050;29;20049;-96
2022/11/08 08:42:27;;;;;;;7.63;2.25;;;;;;;-145.48;100.00;64539.38;6046642;29;20056;-96
2022/11/08 08:45:31;;;;;;;4.88;1.90;;;;;;;-145.48;100.00;64539.38;6043364;29;20053;-96
2022/11/08 08:48:34;;;;;;;3.67;1.95;;;;;;;-145.48;100.00;64539.38;6024159;29;20061;-96
2022/11/08 08:51:36;;;;;;;6.00;2.53;;;;;;;-145.48;100.00;64539.38;6040196;29;20075;-96
2022/11/08 08:54:38;;;;;;;6.32;2.10;;;;;;;-145.48;100.00;64539.38;6031972;29;20037;-96
2022/11/08 08:57:47;;;;;;;4.88;1.65;;;;;;;-145.48;100.00;64539.38;6052953;29;20056;-96
2022/11/08 09:00:49;;;;;;;3.42;1.77;;;;;;;-145.48;100.00;64539.38;6045595;29;20041;-96
2022/11/08 09:04:10;;;;;;;2.70;1.55;;;;;;;-145.48;100.00;64539.38;6050689;29;20432;-96
2022/11/08 09:07:12;;;;;;;6.28;1.67;;;;;;;-145.48;100.00;64539.38;6045102;29;20056;-96
2022/11/08 09:10:15;;;;;;;4.72;2.08;;;;;;;-145.48;100.00;64539.38;6041864;29;20541;-96
2022/11/08 09:13:17;;;;;;;3.45;1.52;;;;;;;-145.48;100.00;64539.38;6043484;29;20049;-96
2022/11/08 09:16:19;;;;;;;4.88;1.70;;;;;;;-145.48;100.00;64539.38;6047326;29;20479;-96
2022/11/08 09:19:22;;;;;;;3.72;1.90;;;;;;;-145.48;100.00;64539.38;6054676;29;20040;-96
2022/11/08 09:22:24;;;;;;;1.83;1.35;;;;;;;-145.48;100.00;64539.38;6047803;29;20049;-96
2022/11/08 09:25:26;;;;;;;3.28;1.70;;;;;;;-145.48;100.00;64539.38;6045080;29;20048;-96
2022/11/08 09:28:33;;;;;;;3.72;2.00;;;;;;;-145.48;100.00;64539.38;6051131;29;20120;-96
2022/11/08 09:31:35;;;;;;;4.05;1.60;;;;;;;-145.48;100.00;64539.38;6038310;29;20523;-96
2022/11/08 09:34:36;;;;;;;4.15;1.80;;;;;;;-145.48;100.00;64539.38;6047558;29;20472;-96
2022/11/08 09:37:38;;;;;;;2.05;1.40;;;;;;;-145.48;100.00;64539.38;6044916;29;20049;-96
2022/11/08 09:41:03;;;;;;;4.03;1.45;;;;;;;-145.48;100.00;64539.38;6044750;29;20411;-96
2022/11/08 09:44:23;;;;;;;3.55;1.60;;;;;;;-145.48;100.00;64539.38;6042785;29;20045;-96
2022/11/08 09:47:36;;;;;;;3.83;1.63;;;;;;;-145.48;100.00;64539.38;6036020;29;20491;-96
2022/11/08 09:50:41;;;;;;;3.72;1.48;;;;;;;-145.48;100.00;64539.38;6032152;29;20412;-96
2022/11/08 09:54:02;;;;;;;2.58;1.52;;;;;;;-145.48;100.00;64539.38;6035856;29;20044;-96
2022/11/08 09:57:06;;;;;;;3.67;1.33;;;;;;;-145.48;100.00;64539.38;6043975;29;20056;-96
2022/11/08 10:00:12;;;;;;;5.65;1.92;;;;;;;-145.48;100.00;64539.38;6041693;29;20346;-96
2022/11/08 10:03:16;;;;;;;3.65;1.45;;;;;;;-145.48;100.00;64539.38;6028756;29;20854;-96
2022/11/08 10:06:19;;;;;;;4.00;1.38;;;;;;;-145.48;100.00;64539.38;6045383;29;20107;-96
2022/11/08 10:09:42;;;;;;;6.00;1.40;;;;;;;-145.48;100.00;64539.38;6051448;29;20045;-96
2022/11/08 10:13:09;;;;;;;1.52;1.23;;;;;;;-145.48;100.00;64539.38;6051196;29;20112;-96
2022/11/08 10:16:33;;;;;;;4.55;1.10;;;;;;;-145.48;100.00;64539.38;6048160;29;20061;-96
2022/11/08 10:19:54;;;;;;;1.85;0.95;;;;;;;-145.48;100.00;64539.38;6048982;29;20049;-96
2022/11/08 10:23:35;;;;;;;4.35;1.25;;;;;;;-145.48;100.00;64539.38;6042277;29;20180;-96
2022/11/08 10:26:49;;;;;;;3.47;1.10;;;;;;;-145.48;100.00;64539.38;6030942;29;20057;-96
2022/11/08 10:29:57;;;;;;;3.63;1.20;;;;;;;-145.48;100.00;64539.38;6042408;29;20045;-96
2022/11/08 10:32:59;;;;;;;3.35;1.00;;;;;;;-145.48;100.00;64539.38;6059322;29;20567;-96
2022/11/08 10:36:10;;;;;;;2.90;0.93;;;;;;;-145.48;100.00;64539.38;6038430;29;20055;-96
2022/11/08 10:39:12;;;;;;;;;;;;;;;-145.48;100.00;64539.38;6037707;29;20052;-96
2022/11/08 10:42:45;;;;;;;3.63;1.15;;;;;;;-145.48;100.00;64539.38;6057045;29;19927;-96
2022/11/08 10:45:47;;;;;;;1.10;0.80;;;;;;;-145.48;100.00;64539.38;6059335;29;20067;-96
2022/11/08 10:48:49;;;;;;;3.70;0.77;;;;;;;-145.48;100.00;64539.38;6046312;29;20372;-96
2022/11/08 10:51:59;;;;;;;3.50;1.20;;;;;;;-145.48;100.00;64539.38;6057491;29;20051;-96
2022/11/08 10:55:04;;;;;;;2.38;0.75;;;;;;;-145.48;100.00;64539.38;6060926;29;20441;-96
2022/11/08 10:58:28;;;;;;;1.60;0.63;;;;;;;-145.48;100.00;64539.38;6035673;29;20044;-96
2022/11/08 11:01:30;;;;;;;1.73;0.60;;;;;;;-145.48;100.00;64539.38;6013614;29;20420;-96
2022/11/08 11:04:33;;;;;;;1.23;0.80;;;;;;;-145.48;100.00;64539.38;6033571;29;20049;-96
2022/11/08 11:07:35;;;;;;;6.35;1.35;;;;;;;-145.48;100.00;64539.38;6038426;29;20037;-95
2022/11/08 11:10:48;;;;;;;2.70;1.15;;;;;;;-145.48;100.00;64539.38;6042195;29;20105;-96
2022/11/08 11:14:16;;;;;;;1.90;0.90;;;;;;;-145.48;100.00;64539.38;6037995;29;20460;-96
2022/11/08 11:17:30;;;;;;;2.03;0.98;;;;;;;-145.48;100.00;64539.38;6043419;29;20109;-96
2022/11/08 11:20:40;;;;;;;0.88;0.73;;;;;;;-145.48;100.00;64539.38;6044115;29;20412;-96
2022/11/08 11:24:04;;;;;;;3.00;1.20;;;;;;;-145.48;100.00;64539.38;6039954;29;20076;-96
2022/11/08 11:27:20;;;;;;;1.77;1.00;;;;;;;-145.48;100.00;64539.38;6037263;29;20586;-96
2022/11/08 11:30:27;;;;;;;1.10;0.90;;;;;;;-145.48;100.00;64539.38;6035162;29;20461;-96
2022/11/08 11:33:29;;;;;;;1.00;0.70;;;;;;;-145.48;100.00;64539.38;6035262;29;20052;-96
2022/11/08 11:36:32;;;;;;;3.08;0.80;;;;;;;-145.48;100.00;64539.38;6039837;29;20049;-96
2022/11/08 11:39:52;;;;;;;4.63;1.05;;;;;;;-145.48;100.00;64539.38;6051924;29;20131;-96
2022/11/08 11:42:55;;;;;;;;;;;;;;;-145.48;100.00;64539.38;6048452;29;20049;-96
2022/11/08 11:46:08;;;;;;;3.03;1.10;;;;;;;-145.48;100.00;64539.38;6052410;29;20030;-96
2022/11/08 11:49:19;;;;;;;0.68;0.68;;;;;;;-145.48;100.00;64539.38;6041531;29;20049;-96
2022/11/08 11:52:21;;;;;;;3.10;0.85;;;;;;;-145.48;100.00;64539.38;6049638;29;20048;-96
2022/11/08 11:55:48;;;;;;;1.42;0.90;;;;;;;-145.48;100.00;64539.38;6041549;29;20064;-96
2022/11/08 11:59:08;;;;;;;2.35;0.80;;;;;;;-145.48;100.00;64539.38;6045176;29;20053;-96
2022/11/08 12:02:28;;;;;;;1.30;0.77;;;;;;;-145.48;100.00;64539.38;6014072;29;20635;-96
2022/11/08 12:05:50;;;;;;;1.77;1.05;;;;;;;-145.48;100.00;64539.38;6017212;29;20507;-96
2022/11/08 12:09:14;;;;;;;0.80;0.77;;;;;;;-145.48;100.00;64539.38;6049164;29;20543;-96
2022/11/08 12:12:29;;;;;;;3.65;1.10;;;;;;;-145.48;100.00;64539.38;6056728;29;20049;-96
2022/11/08 12:15:40;;;;;;;2.33;1.15;;;;;;;-145.48;100.00;64539.38;6057233;29;20055;-96
2022/11/08 12:19:16;;;;;;;2.20;1.05;;;;;;;-145.48;100.00;64539.38;6042113;29;20049;-96
2022/11/08 12:22:44;;;;;;;2.20;1.20;;;;;;;-145.48;100.00;64539.38;6038764;29;20487;-96
2022/11/08 12:26:00;;;;;;;2.20;0.80;;;;;;;-145.48;100.00;64539.38;6048862;29;20440;-96
2022/11/08 12:29:39;;;;;;;2.67;0.85;;;;;;;-145.48;100.00;64539.38;6049491;29;20144;-96
2022/11/08 12:33:04;;;;;;;2.00;1.20;;;;;;;-145.48;100.00;64539.38;6042917;29;20068;-96
2022/11/08 12:36:12;;;;;;;1.38;0.80;;;;;;;-145.48;100.00;64539.38;6057652;29;20532;-96
2022/11/08 12:39:26;;;;;;;2.55;0.98;;;;;;;-145.48;100.00;64539.38;6056845;29;20052;-96
2022/11/08 12:42:48;;;;;;;0.85;0.80;;;;;;;-145.48;100.00;64539.38;6056957;29;20044;-96
2022/11/08 12:46:17;;;;;;;2.05;0.82;;;;;;;-145.48;100.00;64539.38;6054196;29;20128;-96
2022/11/08 12:49:48;;;;;;;2.55;0.90;;;;;;;-145.48;100.00;64539.38;6041200;29;20520;-96
2022/11/08 12:53:27;;;;;;;2.55;0.98;;;;;;;-145.48;100.00;64539.38;6051129;29;20049;-96
2022/11/08 12:56:41;;;;;;;1.63;1.00;;;;;;;-145.48;100.00;64539.38;6038557;29;20048;-96
2022/11/08 13:00:02;;;;;;;3.13;0.90;;;;;;;-145.48;100.00;64539.38;6044853;29;20098;-96
2022/11/08 13:03:27;;;;;;;1.48;0.80;;;;;;;-145.48;100.00;64539.38;6034705;29;20120;-96
2022/11/08 13:06:52;;;;;;;3.75;0.80;;;;;;;-145.48;100.00;64539.38;6017189;29;20063;-96
2022/11/08 13:10:19;;;;;;;2.33;0.98;;;;;;;-145.48;100.00;64539.38;6020101;29;20084;-96
2022/11/08 13:13:45;;;;;;;2.00;0.90;;;;;;;-145.48;100.00;64539.38;5998065;29;20836;-96
2022/11/08 13:17:24;;;;;;;2.45;0.80;;;;;;;-145.48;100.00;64539.38;6015383;29;20461;-96
2022/11/08 13:20:46;;;;;;;2.67;0.90;;;;;;;-145.48;100.00;64539.38;6018231;29;20064;-96
2022/11/08 13:23:48;;;;;;;1.55;0.90;;;;;;;-145.48;100.00;64539.38;6003912;29;20049;-96
2022/11/08 13:26:50;;;;;;;0.70;0.60;;;;;;;-145.48;100.00;64539.38;6020587;29;20069;-96
2022/11/08 13:30:18;;;;;;;2.97;0.70;;;;;;;-145.48;100.00;64539.38;6020997;29;20045;-96
2022/11/08 13:33:28;;;;;;;1.05;0.80;;;;;;;-145.48;100.00;64539.38;6020651;29;20037;-96
2022/11/08 13:36:49;;;;;;;1.67;1.00;;;;;;;-145.48;100.00;64539.38;6016042;29;20053;-96
2022/11/08 13:39:59;;;;;;;2.53;0.77;;;;;;;-145.48;100.00;64539.38;6021433;29;20045;-96
2022/11/08 13:43:20;;;;;;;1.50;0.90;;;;;;;-145.48;100.00;64539.38;6008244;29;20049;-96
2022/11/08 13:46:24;;;;;;;1.48;1.08;;;;;;;-145.48;100.00;64539.38;6036343;29;20045;-96
2022/11/08 13:49:26;;;;;;;2.97;1.10;;;;;;;-145.48;100.00;64539.38;6033141;29;20045;-96
2022/11/08 13:52:45;;;;;;;2.33;0.70;;;;;;;-145.48;100.00;64539.38;6037719;29;20156;-96
2022/11/08 13:55:57;;;;;;;1.00;0.90;;;;;;;-145.48;100.00;64539.38;6035040;29;20530;-96
2022/11/08 13:58:59;;;;;;;1.08;0.80;;;;;;;-145.48;100.00;64539.38;6033729;29;20049;-96
2022/11/08 14:02:03;;;;;;;3.30;0.88;;;;;;;-145.48;100.00;64539.38;6038228;29;20045;-96
2022/11/08 14:05:22;;;;;;;2.58;0.98;;;;;;;-145.48;100.00;64539.38;6035350;29;20427;-96
2022/11/08 14:08:29;;;;;;;1.50;1.00;;;;;;;-145.48;100.00;64539.38;6041611;29;20045;-96
2022/11/08 14:11:56;;;;;;;2.35;0.85;;;;;;;-145.48;100.00;64539.38;6036139;29;20088;-96
2022/11/08 14:15:09;;;;;;;1.80;0.75;;;;;;;-145.48;100.00;64539.38;6033733;29;20045;-96
2022/11/08 14:18:15;;;;;;;1.65;0.90;;;;;;;-145.48;100.00;64539.38;6035204;29;20148;-96
2022/11/08 14:21:18;;;;;;;1.02;0.90;;;;;;;-145.48;100.00;64539.38;6037906;29;20047;-96
2022/11/08 14:24:30;;;;;;;1.30;0.80;;;;;;;-145.48;100.00;64539.38;6045259;29;20104;-96
2022/11/08 14:27:40;;;;;;;1.73;1.10;;;;;;;-145.48;100.00;64539.38;6044789;29;20399;-96
2022/11/08 14:30:47;;;;;;;2.50;0.95;;;;;;;-145.48;100.00;64539.38;6047553;29;20132;-96